sensor_id;sensor_type;location;lat;lon;timestamp;pressure;altitude;pressure_sealevel;temperature;humidity
77897;BME280;67092;64.282;21.056;2023-06-14T00:01:30;101933.00;;;21.33;31.20
77897;BME280;67092;64.282;21.056;2023-06-14T00:03:56;101930.04;;;21.87;30.89
77897;BME280;67092;64.282;21.056;2023-06-14T00:06:22;101925.70;;;21.39;31.12
77897;BME280;67092;64.282;21.056;2023-06-14T00:08:47;101929.19;;;21.41;31.06
77897;BME280;67092;64.282;21.056;2023-06-14T00:11:13;101929.66;;;21.74;30.66
77897;BME280;67092;64.282;21.056;2023-06-14T00:13:38;101931.52;;;21.74;30.91
77897;BME280;67092;64.282;21.056;2023-06-14T00:16:04;101927.84;;;21.67;30.68
77897;BME280;67092;64.282;21.056;2023-06-14T00:18:30;101930.93;;;21.79;30.60
77897;BME280;67092;64.282;21.056;2023-06-14T00:20:56;101934.24;;;22.01;30.26
77897;BME280;67092;64.282;21.056;2023-06-14T00:23:21;101935.51;;;21.15;31.29
77897;BME280;67092;64.282;21.056;2023-06-14T00:25:47;101935.33;;;21.46;30.91
77897;BME280;67092;64.282;21.056;2023-06-14T00:28:13;101940.06;;;20.77;31.67
77897;BME280;67092;64.282;21.056;2023-06-14T00:30:38;101946.59;;;21.39;31.03
77897;BME280;67092;64.282;21.056;2023-06-14T00:33:03;101948.97;;;21.13;31.26
77897;BME280;67092;64.282;21.056;2023-06-14T00:35:29;101949.04;;;21.36;30.95
77897;BME280;67092;64.282;21.056;2023-06-14T00:37:54;101943.74;;;21.37;30.88
77897;BME280;67092;64.282;21.056;2023-06-14T00:40:20;101935.10;;;21.52;30.71
77897;BME280;67092;64.282;21.056;2023-06-14T00:42:46;101934.80;;;21.21;31.07
77897;BME280;67092;64.282;21.056;2023-06-14T00:45:12;101942.84;;;21.59;30.63
77897;BME280;67092;64.282;21.056;2023-06-14T00:47:38;101942.03;;;21.66;30.50
77897;BME280;67092;64.282;21.056;2023-06-14T00:50:03;101944.53;;;21.28;30.96
77897;BME280;67092;64.282;21.056;2023-06-14T00:52:28;101941.14;;;21.27;30.97
77897;BME280;67092;64.282;21.056;2023-06-14T00:54:54;101937.29;;;21.19;31.07
77897;BME280;67092;64.282;21.056;2023-06-14T00:57:20;101938.66;;;21.44;31.00
77897;BME280;67092;64.282;21.056;2023-06-14T00:59:47;101941.30;;;21.20;30.73
77897;BME280;67092;64.282;21.056;2023-06-14T01:02:11;101945.90;;;21.15;31.04
77897;BME280;67092;64.282;21.056;2023-06-14T01:04:37;101947.14;;;21.38;30.79
77897;BME280;67092;64.282;21.056;2023-06-14T01:07:10;101946.13;;;21.57;30.58
77897;BME280;67092;64.282;21.056;2023-06-14T01:09:32;101941.12;;;21.33;30.78
77897;BME280;67092;64.282;21.056;2023-06-14T01:11:59;101941.89;;;21.43;30.66
77897;BME280;67092;64.282;21.056;2023-06-14T01:14:20;101942.84;;;21.32;30.75
77897;BME280;67092;64.282;21.056;2023-06-14T01:16:45;101940.52;;;21.88;30.34
77897;BME280;67092;64.282;21.056;2023-06-14T01:19:12;101945.52;;;21.36;30.71
77897;BME280;67092;64.282;21.056;2023-06-14T01:21:35;101948.48;;;21.22;30.87
77897;BME280;67092;64.282;21.056;2023-06-14T01:24:01;101951.48;;;21.29;30.79
77897;BME280;67092;64.282;21.056;2023-06-14T01:26:27;101950.66;;;21.25;30.77
77897;BME280;67092;64.282;21.056;2023-06-14T01:28:53;101944.93;;;21.44;30.54
77897;BME280;67092;64.282;21.056;2023-06-14T01:31:20;101938.41;;;21.43;30.59
77897;BME280;67092;64.282;21.056;2023-06-14T01:33:44;101938.32;;;21.08;30.98
77897;BME280;67092;64.282;21.056;2023-06-14T01:36:09;101944.76;;;21.05;30.95
77897;BME280;67092;64.282;21.056;2023-06-14T01:38:36;101945.44;;;21.43;30.88
77897;BME280;67092;64.282;21.056;2023-06-14T01:41:01;101943.17;;;21.58;30.70
77897;BME280;67092;64.282;21.056;2023-06-14T01:43:26;101943.91;;;21.06;30.96
77897;BME280;67092;64.282;21.056;2023-06-14T01:45:54;101945.83;;;20.71;31.37
77897;BME280;67092;64.282;21.056;2023-06-14T01:48:18;101946.73;;;21.08;30.97
77897;BME280;67092;64.282;21.056;2023-06-14T01:50:43;101939.60;;;21.18;31.10
77897;BME280;67092;64.282;21.056;2023-06-14T01:53:10;101936.52;;;21.24;31.01
77897;BME280;67092;64.282;21.056;2023-06-14T01:55:34;101936.54;;;21.48;31.00
77897;BME280;67092;64.282;21.056;2023-06-14T01:58:00;101940.46;;;20.99;30.99
77897;BME280;67092;64.282;21.056;2023-06-14T02:00:25;101938.03;;;21.42;31.02
77897;BME280;67092;64.282;21.056;2023-06-14T02:02:51;101940.98;;;20.91;31.06
77897;BME280;67092;64.282;21.056;2023-06-14T02:05:17;101941.74;;;21.06;31.21
77897;BME280;67092;64.282;21.056;2023-06-14T02:07:42;101941.12;;;21.42;31.04
77897;BME280;67092;64.282;21.056;2023-06-14T02:10:08;101945.84;;;21.06;30.91
77897;BME280;67092;64.282;21.056;2023-06-14T02:12:33;101951.50;;;21.20;30.68
77897;BME280;67092;64.282;21.056;2023-06-14T02:14:59;101950.69;;;21.20;30.68
77897;BME280;67092;64.282;21.056;2023-06-14T02:17:24;101945.69;;;21.39;30.67
77897;BME280;67092;64.282;21.056;2023-06-14T02:19:50;101949.25;;;21.26;30.58
77897;BME280;67092;64.282;21.056;2023-06-14T02:22:16;101953.64;;;21.61;30.49
77897;BME280;67092;64.282;21.056;2023-06-14T02:24:41;101957.29;;;20.96;30.94
77897;BME280;67092;64.282;21.056;2023-06-14T02:27:08;101958.97;;;21.02;30.85
77897;BME280;67092;64.282;21.056;2023-06-14T02:29:33;101956.60;;;21.61;30.19
77897;BME280;67092;64.282;21.056;2023-06-14T02:31:58;101957.12;;;20.83;31.07
77897;BME280;67092;64.282;21.056;2023-06-14T02:34:24;101960.04;;;21.23;30.90
77897;BME280;67092;64.282;21.056;2023-06-14T02:36:49;101960.58;;;21.15;31.03
77897;BME280;67092;64.282;21.056;2023-06-14T02:39:15;101962.49;;;21.16;30.72
77897;BME280;67092;64.282;21.056;2023-06-14T02:41:41;101963.53;;;21.32;30.83
77897;BME280;67092;64.282;21.056;2023-06-14T02:44:06;101967.97;;;21.52;30.64
77897;BME280;67092;64.282;21.056;2023-06-14T02:46:32;101967.11;;;21.69;30.65
77897;BME280;67092;64.282;21.056;2023-06-14T02:48:58;101966.34;;;21.08;30.73
77897;BME280;67092;64.282;21.056;2023-06-14T02:51:23;101966.24;;;20.94;30.94
77897;BME280;67092;64.282;21.056;2023-06-14T02:53:49;101962.03;;;20.92;30.98
77897;BME280;67092;64.282;21.056;2023-06-14T02:56:15;101958.05;;;20.90;31.02
77897;BME280;67092;64.282;21.056;2023-06-14T02:58:40;101958.77;;;21.40;30.70
77897;BME280;67092;64.282;21.056;2023-06-14T03:01:06;101968.45;;;21.05;30.84
77897;BME280;67092;64.282;21.056;2023-06-14T03:03:31;101974.46;;;21.03;30.68
77897;BME280;67092;64.282;21.056;2023-06-14T03:05:57;101968.47;;;21.36;30.80
77897;BME280;67092;64.282;21.056;2023-06-14T03:08:23;101966.69;;;20.56;31.42
77897;BME280;67092;64.282;21.056;2023-06-14T03:10:49;101960.81;;;21.27;30.61
77897;BME280;67092;64.282;21.056;2023-06-14T03:13:14;101959.80;;;21.64;30.51
77897;BME280;67092;64.282;21.056;2023-06-14T03:15:40;101961.65;;;21.29;30.94
77897;BME280;67092;64.282;21.056;2023-06-14T03:18:07;101964.07;;;21.58;30.29
77897;BME280;67092;64.282;21.056;2023-06-14T03:20:31;101967.80;;;20.75;31.25
77897;BME280;67092;64.282;21.056;2023-06-14T03:22:56;101965.30;;;21.34;30.63
77897;BME280;67092;64.282;21.056;2023-06-14T03:25:22;101964.32;;;21.27;30.67
77897;BME280;67092;64.282;21.056;2023-06-14T03:27:48;101961.38;;;21.49;30.39
77897;BME280;67092;64.282;21.056;2023-06-14T03:30:14;101964.66;;;21.45;30.75
77897;BME280;67092;64.282;21.056;2023-06-14T03:32:39;101964.02;;;20.89;31.12
77897;BME280;67092;64.282;21.056;2023-06-14T03:35:05;101961.64;;;21.30;30.64
77897;BME280;67092;64.282;21.056;2023-06-14T03:37:30;101961.32;;;21.31;30.89
77897;BME280;67092;64.282;21.056;2023-06-14T03:39:56;101964.42;;;20.99;30.99
77897;BME280;67092;64.282;21.056;2023-06-14T03:42:22;101961.63;;;21.26;30.82
77897;BME280;67092;64.282;21.056;2023-06-14T03:44:47;101958.80;;;21.39;30.66
77897;BME280;67092;64.282;21.056;2023-06-14T03:47:12;101955.16;;;21.47;30.55
77897;BME280;67092;64.282;21.056;2023-06-14T03:49:38;101956.16;;;21.64;30.34
77897;BME280;67092;64.282;21.056;2023-06-14T03:52:04;101957.40;;;21.17;30.93
77897;BME280;67092;64.282;21.056;2023-06-14T03:54:29;101957.81;;;21.78;30.34
77897;BME280;67092;64.282;21.056;2023-06-14T03:56:54;101961.21;;;21.89;30.41
77897;BME280;67092;64.282;21.056;2023-06-14T03:59:20;101964.22;;;21.53;30.53
77897;BME280;67092;64.282;21.056;2023-06-14T04:01:45;101958.52;;;21.47;30.78
77897;BME280;67092;64.282;21.056;2023-06-14T04:04:11;101957.19;;;21.46;30.52
77897;BME280;67092;64.282;21.056;2023-06-14T04:06:36;101960.03;;;21.36;30.57
77897;BME280;67092;64.282;21.056;2023-06-14T04:09:02;101964.32;;;21.44;30.48
77897;BME280;67092;64.282;21.056;2023-06-14T04:11:28;101967.83;;;20.90;31.08
77897;BME280;67092;64.282;21.056;2023-06-14T04:13:53;101968.03;;;21.29;30.60
77897;BME280;67092;64.282;21.056;2023-06-14T04:16:19;101964.97;;;21.29;30.85
77897;BME280;67092;64.282;21.056;2023-06-14T04:18:45;101960.69;;;20.88;31.02
77897;BME280;67092;64.282;21.056;2023-06-14T04:21:10;101960.73;;;21.32;30.78
77897;BME280;67092;64.282;21.056;2023-06-14T04:23:36;101964.69;;;21.63;30.08
77897;BME280;67092;64.282;21.056;2023-06-14T04:26:01;101967.27;;;21.23;30.54
77897;BME280;67092;64.282;21.056;2023-06-14T04:28:27;101970.92;;;21.20;30.53
77897;BME280;67092;64.282;21.056;2023-06-14T04:30:53;101967.70;;;21.19;30.55
77897;BME280;67092;64.282;21.056;2023-06-14T04:33:18;101967.42;;;21.39;30.27
77897;BME280;67092;64.282;21.056;2023-06-14T04:35:44;101966.02;;;21.11;30.59
77897;BME280;67092;64.282;21.056;2023-06-14T04:38:09;101965.25;;;21.54;30.30
77897;BME280;67092;64.282;21.056;2023-06-14T04:40:35;101966.25;;;21.32;30.33
77897;BME280;67092;64.282;21.056;2023-06-14T04:43:01;101964.89;;;21.27;30.32
77897;BME280;67092;64.282;21.056;2023-06-14T04:45:27;101959.55;;;21.30;30.28
77897;BME280;67092;64.282;21.056;2023-06-14T04:47:52;101958.64;;;21.06;30.57
77897;BME280;67092;64.282;21.056;2023-06-14T04:50:18;101956.60;;;21.16;30.42
77897;BME280;67092;64.282;21.056;2023-06-14T04:52:43;101959.60;;;21.43;30.12
77897;BME280;67092;64.282;21.056;2023-06-14T04:55:09;101961.27;;;21.16;30.38
77897;BME280;67092;64.282;21.056;2023-06-14T04:57:34;101963.32;;;21.14;30.38
77897;BME280;67092;64.282;21.056;2023-06-14T05:00:00;101961.62;;;21.52;29.94
77897;BME280;67092;64.282;21.056;2023-06-14T05:02:26;101961.59;;;21.05;30.45
77897;BME280;67092;64.282;21.056;2023-06-14T05:04:51;101960.80;;;21.37;30.61
77897;BME280;67092;64.282;21.056;2023-06-14T05:07:17;101960.68;;;21.27;30.21
77897;BME280;67092;64.282;21.056;2023-06-14T05:09:42;101960.27;;;21.42;30.54
77897;BME280;67092;64.282;21.056;2023-06-14T05:12:08;101964.18;;;21.56;29.82
77897;BME280;67092;64.282;21.056;2023-06-14T05:14:33;101964.85;;;21.11;30.34
77897;BME280;67092;64.282;21.056;2023-06-14T05:16:59;101963.58;;;21.59;30.34
77897;BME280;67092;64.282;21.056;2023-06-14T05:19:24;101961.66;;;21.01;30.46
77897;BME280;67092;64.282;21.056;2023-06-14T05:21:50;101955.94;;;21.15;30.58
77897;BME280;67092;64.282;21.056;2023-06-14T05:24:16;101957.64;;;21.35;30.29
77897;BME280;67092;64.282;21.056;2023-06-14T05:26:41;101957.88;;;20.84;30.59
77897;BME280;67092;64.282;21.056;2023-06-14T05:29:07;101959.71;;;21.24;30.15
77897;BME280;67092;64.282;21.056;2023-06-14T05:31:33;101957.09;;;21.38;29.95
77897;BME280;67092;64.282;21.056;2023-06-14T05:33:58;101956.77;;;21.39;30.18
77897;BME280;67092;64.282;21.056;2023-06-14T05:36:24;101954.73;;;20.97;30.38
77897;BME280;67092;64.282;21.056;2023-06-14T05:38:49;101955.86;;;21.17;30.14
77897;BME280;67092;64.282;21.056;2023-06-14T05:41:15;101956.23;;;21.32;29.98
77897;BME280;67092;64.282;21.056;2023-06-14T05:43:41;101954.96;;;20.97;30.33
77897;BME280;67092;64.282;21.056;2023-06-14T05:46:06;101956.57;;;21.08;30.25
77897;BME280;67092;64.282;21.056;2023-06-14T05:48:32;101958.82;;;21.19;30.08
77897;BME280;67092;64.282;21.056;2023-06-14T05:50:58;101955.96;;;21.34;30.19
77897;BME280;67092;64.282;21.056;2023-06-14T05:53:23;101956.14;;;21.56;29.65
77897;BME280;67092;64.282;21.056;2023-06-14T05:55:49;101958.25;;;21.29;29.92
77897;BME280;67092;64.282;21.056;2023-06-14T05:58:14;101955.43;;;21.47;30.01
77897;BME280;67092;64.282;21.056;2023-06-14T06:00:40;101955.72;;;21.15;30.13
77897;BME280;67092;64.282;21.056;2023-06-14T06:03:06;101954.69;;;20.95;30.29
77897;BME280;67092;64.282;21.056;2023-06-14T06:05:31;101955.11;;;21.10;30.10
77897;BME280;67092;64.282;21.056;2023-06-14T06:07:57;101957.30;;;21.32;29.85
77897;BME280;67092;64.282;21.056;2023-06-14T06:10:23;101956.31;;;20.80;30.43
77897;BME280;67092;64.282;21.056;2023-06-14T06:12:48;101955.36;;;20.71;30.53
77897;BME280;67092;64.282;21.056;2023-06-14T06:15:14;101953.65;;;20.76;30.47
77897;BME280;67092;64.282;21.056;2023-06-14T06:17:39;101953.50;;;21.05;30.13
77897;BME280;67092;64.282;21.056;2023-06-14T06:20:06;101952.35;;;20.91;30.26
77897;BME280;67092;64.282;21.056;2023-06-14T06:22:31;101953.04;;;21.17;30.20
77897;BME280;67092;64.282;21.056;2023-06-14T06:24:56;101954.58;;;21.58;29.53
77897;BME280;67092;64.282;21.056;2023-06-14T06:27:22;101954.20;;;21.10;30.29
77897;BME280;67092;64.282;21.056;2023-06-14T06:29:47;101955.06;;;20.52;30.66
77897;BME280;67092;64.282;21.056;2023-06-14T06:32:13;101955.74;;;21.41;29.96
77897;BME280;67092;64.282;21.056;2023-06-14T06:34:39;101954.42;;;21.18;30.13
77897;BME280;67092;64.282;21.056;2023-06-14T06:37:05;101957.08;;;21.47;29.50
77897;BME280;67092;64.282;21.056;2023-06-14T06:39:30;101957.55;;;21.43;29.57
77897;BME280;67092;64.282;21.056;2023-06-14T06:41:55;101956.89;;;21.11;29.89
77897;BME280;67092;64.282;21.056;2023-06-14T06:44:22;101958.35;;;21.24;29.72
77897;BME280;67092;64.282;21.056;2023-06-14T06:46:47;101960.14;;;21.41;29.78
77897;BME280;67092;64.282;21.056;2023-06-14T06:49:12;101958.19;;;21.08;29.85
77897;BME280;67092;64.282;21.056;2023-06-14T06:51:41;101954.64;;;20.95;29.97
77897;BME280;67092;64.282;21.056;2023-06-14T06:54:04;101959.39;;;21.05;29.89
77897;BME280;67092;64.282;21.056;2023-06-14T06:56:29;101955.83;;;20.83;30.10
77897;BME280;67092;64.282;21.056;2023-06-14T06:58:55;101955.04;;;21.02;30.15
77897;BME280;67092;64.282;21.056;2023-06-14T07:01:20;101959.74;;;21.31;29.57
77897;BME280;67092;64.282;21.056;2023-06-14T07:03:46;101957.94;;;21.15;29.97
77897;BME280;67092;64.282;21.056;2023-06-14T07:06:12;101962.36;;;21.22;29.67
77897;BME280;67092;64.282;21.056;2023-06-14T07:08:38;101965.48;;;20.85;30.01
77897;BME280;67092;64.282;21.056;2023-06-14T07:11:03;101970.13;;;20.95;29.90
77897;BME280;67092;64.282;21.056;2023-06-14T07:13:28;101967.17;;;20.87;29.94
77897;BME280;67092;64.282;21.056;2023-06-14T07:15:55;101969.03;;;21.29;29.51
77897;BME280;67092;64.282;21.056;2023-06-14T07:18:20;101966.09;;;21.32;29.48
77897;BME280;67092;64.282;21.056;2023-06-14T07:20:46;101967.39;;;21.19;29.64
77897;BME280;67092;64.282;21.056;2023-06-14T07:23:11;101962.38;;;21.44;29.34
77897;BME280;67092;64.282;21.056;2023-06-14T07:25:36;101965.72;;;21.20;29.57
77897;BME280;67092;64.282;21.056;2023-06-14T07:28:02;101967.68;;;21.36;29.39
77897;BME280;67092;64.282;21.056;2023-06-14T07:30:28;101967.00;;;21.28;29.49
77897;BME280;67092;64.282;21.056;2023-06-14T07:32:53;101962.91;;;21.52;29.49
77897;BME280;67092;64.282;21.056;2023-06-14T07:35:19;101960.78;;;21.10;29.70
77897;BME280;67092;64.282;21.056;2023-06-14T07:37:45;101959.80;;;21.06;29.77
77897;BME280;67092;64.282;21.056;2023-06-14T07:40:11;101956.44;;;21.41;29.59
77897;BME280;67092;64.282;21.056;2023-06-14T07:42:36;101959.17;;;21.28;29.47
77897;BME280;67092;64.282;21.056;2023-06-14T07:45:02;101961.19;;;21.58;29.11
77897;BME280;67092;64.282;21.056;2023-06-14T07:47:27;101956.70;;;21.00;29.75
77897;BME280;67092;64.282;21.056;2023-06-14T07:49:53;101958.06;;;21.27;29.46
77897;BME280;67092;64.282;21.056;2023-06-14T07:52:18;101960.88;;;21.36;29.64
77897;BME280;67092;64.282;21.056;2023-06-14T07:54:44;101965.24;;;20.99;30.03
77897;BME280;67092;64.282;21.056;2023-06-14T07:57:10;101964.75;;;20.50;30.33
77897;BME280;67092;64.282;21.056;2023-06-14T07:59:35;101967.86;;;21.17;29.58
77897;BME280;67092;64.282;21.056;2023-06-14T08:02:01;101967.08;;;21.57;29.12
77897;BME280;67092;64.282;21.056;2023-06-14T08:04:26;101968.08;;;20.91;29.86
77897;BME280;67092;64.282;21.056;2023-06-14T08:06:52;101969.42;;;21.24;29.49
77897;BME280;67092;64.282;21.056;2023-06-14T08:09:19;101970.97;;;21.64;29.04
77897;BME280;67092;64.282;21.056;2023-06-14T08:11:43;101970.88;;;21.48;29.20
77897;BME280;67092;64.282;21.056;2023-06-14T08:14:09;101970.47;;;21.59;29.07
77897;BME280;67092;64.282;21.056;2023-06-14T08:16:35;101969.55;;;21.61;29.31
77897;BME280;67092;64.282;21.056;2023-06-14T08:19:00;101967.22;;;21.27;29.41
77897;BME280;67092;64.282;21.056;2023-06-14T08:21:26;101962.31;;;21.33;29.61
77897;BME280;67092;64.282;21.056;2023-06-14T08:23:51;101962.83;;;21.19;29.50
77897;BME280;67092;64.282;21.056;2023-06-14T08:26:17;101961.63;;;21.39;29.29
77897;BME280;67092;64.282;21.056;2023-06-14T08:28:43;101962.34;;;21.25;29.41
77897;BME280;67092;64.282;21.056;2023-06-14T08:31:09;101960.97;;;21.93;28.93
77897;BME280;67092;64.282;21.056;2023-06-14T08:33:34;101957.62;;;21.19;29.45
77897;BME280;67092;64.282;21.056;2023-06-14T08:36:00;101957.45;;;20.96;29.70
77897;BME280;67092;64.282;21.056;2023-06-14T08:38:25;101961.83;;;21.69;29.13
77897;BME280;67092;64.282;21.056;2023-06-14T08:40:53;101959.76;;;20.97;29.69
77897;BME280;67092;64.282;21.056;2023-06-14T08:43:16;101960.36;;;21.65;28.96
77897;BME280;67092;64.282;21.056;2023-06-14T08:45:42;101958.52;;;20.93;29.74
77897;BME280;67092;64.282;21.056;2023-06-14T08:48:08;101960.48;;;21.54;29.07
77897;BME280;67092;64.282;21.056;2023-06-14T08:50:34;101956.68;;;21.46;29.40
77897;BME280;67092;64.282;21.056;2023-06-14T08:53:01;101957.64;;;21.33;29.27
77897;BME280;67092;64.282;21.056;2023-06-14T08:55:25;101953.25;;;21.42;29.12
77897;BME280;67092;64.282;21.056;2023-06-14T08:57:50;101954.11;;;21.39;29.19
77897;BME280;67092;64.282;21.056;2023-06-14T09:00:16;101954.34;;;21.00;29.57
77897;BME280;67092;64.282;21.056;2023-06-14T09:02:41;101954.51;;;21.34;29.24
77897;BME280;67092;64.282;21.056;2023-06-14T09:05:07;101952.87;;;21.12;29.47
77897;BME280;67092;64.282;21.056;2023-06-14T09:07:33;101950.36;;;20.87;29.73
77897;BME280;67092;64.282;21.056;2023-06-14T09:10:05;101950.24;;;21.47;29.13
77897;BME280;67092;64.282;21.056;2023-06-14T09:12:24;101950.33;;;21.32;29.51
77897;BME280;67092;64.282;21.056;2023-06-14T09:14:49;101947.74;;;21.08;29.51
77897;BME280;67092;64.282;21.056;2023-06-14T09:17:15;101943.73;;;21.39;29.16
77897;BME280;67092;64.282;21.056;2023-06-14T09:19:41;101944.08;;;21.22;29.31
77897;BME280;67092;64.282;21.056;2023-06-14T09:22:06;101941.69;;;21.47;29.27
77897;BME280;67092;64.282;21.056;2023-06-14T09:24:32;101941.25;;;21.34;29.14
77897;BME280;67092;64.282;21.056;2023-06-14T09:26:57;101939.77;;;21.59;28.92
77897;BME280;67092;64.282;21.056;2023-06-14T09:29:23;101937.29;;;21.09;29.44
77897;BME280;67092;64.282;21.056;2023-06-14T09:31:49;101935.88;;;21.39;29.10
77897;BME280;67092;64.282;21.056;2023-06-14T09:34:16;101935.38;;;20.94;29.57
77897;BME280;67092;64.282;21.056;2023-06-14T09:36:40;101934.01;;;21.33;29.42
77897;BME280;67092;64.282;21.056;2023-06-14T09:39:05;101935.08;;;21.06;29.40
77897;BME280;67092;64.282;21.056;2023-06-14T09:41:32;101931.21;;;20.84;29.65
77897;BME280;67092;64.282;21.056;2023-06-14T09:43:57;101926.91;;;20.73;29.74
77897;BME280;67092;64.282;21.056;2023-06-14T09:46:22;101929.88;;;21.36;29.03
77897;BME280;67092;64.282;21.056;2023-06-14T09:48:48;101927.73;;;21.27;29.08
77897;BME280;67092;64.282;21.056;2023-06-14T09:51:14;101928.02;;;21.26;29.12
77897;BME280;67092;64.282;21.056;2023-06-14T09:53:40;101922.19;;;21.16;29.20
77897;BME280;67092;64.282;21.056;2023-06-14T09:56:05;101919.77;;;21.18;29.17
77897;BME280;67092;64.282;21.056;2023-06-14T09:58:30;101915.11;;;21.24;29.10
77897;BME280;67092;64.282;21.056;2023-06-14T10:00:57;101915.80;;;21.07;29.26
77897;BME280;67092;64.282;21.056;2023-06-14T10:03:26;101916.05;;;20.98;29.40
77897;BME280;67092;64.282;21.056;2023-06-14T10:05:48;101916.74;;;21.01;29.32
77897;BME280;67092;64.282;21.056;2023-06-14T10:08:15;101917.59;;;21.49;29.04
77897;BME280;67092;64.282;21.056;2023-06-14T10:10:39;101917.04;;;21.18;29.11
77897;BME280;67092;64.282;21.056;2023-06-14T10:13:04;101914.47;;;21.29;29.26
77897;BME280;67092;64.282;21.056;2023-06-14T10:15:35;101917.43;;;21.59;28.90
77897;BME280;67092;64.282;21.056;2023-06-14T10:17:59;101917.22;;;21.38;28.89
77897;BME280;67092;64.282;21.056;2023-06-14T10:20:28;101915.35;;;21.37;29.07
77897;BME280;67092;64.282;21.056;2023-06-14T10:22:50;101912.42;;;21.41;28.80
77897;BME280;67092;64.282;21.056;2023-06-14T10:25:13;101909.67;;;21.79;28.68
77897;BME280;67092;64.282;21.056;2023-06-14T10:27:38;101904.98;;;21.45;28.74
77897;BME280;67092;64.282;21.056;2023-06-14T10:30:06;101907.10;;;20.96;29.30
77897;BME280;67092;64.282;21.056;2023-06-14T10:32:29;101905.74;;;21.10;29.10
77897;BME280;67092;64.282;21.056;2023-06-14T10:34:57;101900.41;;;20.93;29.26
77897;BME280;67092;64.282;21.056;2023-06-14T10:37:20;101901.68;;;21.29;28.89
77897;BME280;67092;64.282;21.056;2023-06-14T10:39:46;101902.87;;;21.15;29.03
77897;BME280;67092;64.282;21.056;2023-06-14T10:42:12;101896.27;;;21.45;28.65
77897;BME280;67092;64.282;21.056;2023-06-14T10:44:40;101898.90;;;21.33;28.77
77897;BME280;67092;64.282;21.056;2023-06-14T10:47:07;101899.12;;;21.29;29.14
77897;BME280;67092;64.282;21.056;2023-06-14T10:49:39;101901.53;;;21.34;28.79
77897;BME280;67092;64.282;21.056;2023-06-14T10:51:57;101900.79;;;21.25;29.14
77897;BME280;67092;64.282;21.056;2023-06-14T10:54:21;101899.95;;;21.15;28.99
77897;BME280;67092;64.282;21.056;2023-06-14T10:56:47;101898.96;;;21.46;28.62
77897;BME280;67092;64.282;21.056;2023-06-14T10:59:11;101901.37;;;21.65;28.39
77897;BME280;67092;64.282;21.056;2023-06-14T11:01:40;101898.08;;;21.68;28.36
77897;BME280;67092;64.282;21.056;2023-06-14T11:04:07;101897.33;;;21.49;28.56
77897;BME280;67092;64.282;21.056;2023-06-14T11:06:35;101898.36;;;21.46;28.63
77897;BME280;67092;64.282;21.056;2023-06-14T11:09:14;101895.75;;;21.40;28.60
77897;BME280;67092;64.282;21.056;2023-06-14T11:11:22;101896.16;;;21.59;28.43
77897;BME280;67092;64.282;21.056;2023-06-14T11:13:45;101893.61;;;21.49;28.53
77897;BME280;67092;64.282;21.056;2023-06-14T11:16:11;101894.14;;;21.20;28.88
77897;BME280;67092;64.282;21.056;2023-06-14T11:18:36;101893.88;;;21.09;29.02
77897;BME280;67092;64.282;21.056;2023-06-14T11:21:01;101890.20;;;21.30;29.04
77897;BME280;67092;64.282;21.056;2023-06-14T11:23:27;101891.90;;;21.15;28.92
77897;BME280;67092;64.282;21.056;2023-06-14T11:25:53;101891.46;;;21.00;29.08
77897;BME280;67092;64.282;21.056;2023-06-14T11:28:19;101889.00;;;21.42;28.63
77897;BME280;67092;64.282;21.056;2023-06-14T11:30:44;101891.32;;;21.41;28.61
77897;BME280;67092;64.282;21.056;2023-06-14T11:33:10;101890.70;;;21.12;28.96
77897;BME280;67092;64.282;21.056;2023-06-14T11:35:35;101885.93;;;21.12;28.94
77897;BME280;67092;64.282;21.056;2023-06-14T11:38:02;101889.97;;;21.29;29.05
77897;BME280;67092;64.282;21.056;2023-06-14T11:40:27;101890.42;;;21.34;28.96
77897;BME280;67092;64.282;21.056;2023-06-14T11:42:58;101886.43;;;21.24;28.79
77897;BME280;67092;64.282;21.056;2023-06-14T11:45:18;101885.57;;;21.21;28.82
77897;BME280;67092;64.282;21.056;2023-06-14T11:47:43;101881.27;;;21.17;28.85
77897;BME280;67092;64.282;21.056;2023-06-14T11:50:09;101877.72;;;21.55;28.74
77897;BME280;67092;64.282;21.056;2023-06-14T11:52:35;101876.69;;;21.37;28.96
77897;BME280;67092;64.282;21.056;2023-06-14T11:55:01;101874.43;;;21.04;29.03
77897;BME280;67092;64.282;21.056;2023-06-14T11:57:25;101873.22;;;21.37;28.89
77897;BME280;67092;64.282;21.056;2023-06-14T11:59:51;101874.22;;;21.14;29.14
77897;BME280;67092;64.282;21.056;2023-06-14T12:02:17;101871.88;;;21.39;28.61
77897;BME280;67092;64.282;21.056;2023-06-14T12:04:42;101876.00;;;21.31;28.70
77897;BME280;67092;64.282;21.056;2023-06-14T12:07:09;101877.82;;;21.28;28.72
77897;BME280;67092;64.282;21.056;2023-06-14T12:09:33;101880.34;;;21.30;29.00
77897;BME280;67092;64.282;21.056;2023-06-14T12:12:00;101874.91;;;21.73;28.29
77897;BME280;67092;64.282;21.056;2023-06-14T12:14:28;101867.72;;;21.46;28.53
77897;BME280;67092;64.282;21.056;2023-06-14T12:16:50;101868.43;;;21.00;29.04
77897;BME280;67092;64.282;21.056;2023-06-14T12:19:17;101864.01;;;21.29;28.71
77897;BME280;67092;64.282;21.056;2023-06-14T12:21:43;101862.29;;;21.17;28.87
77897;BME280;67092;64.282;21.056;2023-06-14T12:24:08;101862.67;;;21.21;28.81
77897;BME280;67092;64.282;21.056;2023-06-14T12:26:33;101858.25;;;21.09;28.93
77897;BME280;67092;64.282;21.056;2023-06-14T12:28:59;101855.13;;;21.49;28.49
77897;BME280;67092;64.282;21.056;2023-06-14T12:31:24;101861.14;;;21.00;29.05